sensor_id;sensor_type;location;lat;lon;timestamp;pressure;altitude;pressure_sealevel;temperature;humidity
42247;BME280;27913;42.722;23.268;2023-04-10T00:04:15;94960.09;;;5.90;91.13
42247;BME280;27913;42.722;23.268;2023-04-10T00:06:41;95110.53;;;6.78;91.16
42247;BME280;27913;42.722;23.268;2023-04-10T00:09:07;94810.91;;;4.91;91.57
42247;BME280;27913;42.722;23.268;2023-04-10T00:11:33;94966.25;;;5.80;92.09
42247;BME280;27913;42.722;23.268;2023-04-10T00:13:59;94898.47;;;5.46;91.76
42247;BME280;27913;42.722;23.268;2023-04-10T00:16:24;94847.63;;;5.15;91.46
42247;BME280;27913;42.722;23.268;2023-04-10T00:18:50;95087.16;;;6.68;91.48
42247;BME280;27913;42.722;23.268;2023-04-10T00:21:15;95114.16;;;6.93;91.42
42247;BME280;27913;42.722;23.268;2023-04-10T00:23:41;95110.88;;;6.99;91.05
42247;BME280;27913;42.722;23.268;2023-04-10T00:26:07;95054.31;;;6.65;90.57
42247;BME280;27913;42.722;23.268;2023-04-10T00:28:33;95104.34;;;7.12;90.08
42247;BME280;27913;42.722;23.268;2023-04-10T00:31:05;95113.34;;;7.18;88.76
42247;BME280;27913;42.722;23.268;2023-04-10T00:33:30;95112.69;;;7.16;87.11
42247;BME280;27913;42.722;23.268;2023-04-10T00:35:56;95038.28;;;6.68;85.63
42247;BME280;27913;42.722;23.268;2023-04-10T00:38:21;95106.00;;;7.13;84.42
42247;BME280;27913;42.722;23.268;2023-04-10T00:40:47;95102.56;;;7.21;83.33
42247;BME280;27913;42.722;23.268;2023-04-10T00:43:13;95086.53;;;7.07;82.28
42247;BME280;27913;42.722;23.268;2023-04-10T00:45:39;95098.47;;;7.18;82.27
42247;BME280;27913;42.722;23.268;2023-04-10T00:48:05;95108.44;;;7.23;81.88
42247;BME280;27913;42.722;23.268;2023-04-10T00:50:30;95107.63;;;7.22;81.55
42247;BME280;27913;42.722;23.268;2023-04-10T00:52:57;94991.09;;;6.53;82.07
42247;BME280;27913;42.722;23.268;2023-04-10T00:55:24;95105.66;;;7.24;83.04
42247;BME280;27913;42.722;23.268;2023-04-10T00:57:50;95009.38;;;6.70;83.75
42247;BME280;27913;42.722;23.268;2023-04-10T01:00:18;95074.78;;;7.11;84.12
42247;BME280;27913;42.722;23.268;2023-04-10T01:02:43;95100.09;;;7.28;83.96
42247;BME280;27913;42.722;23.268;2023-04-10T01:05:10;95068.06;;;7.09;84.63
42247;BME280;27913;42.722;23.268;2023-04-10T01:10:48;95070.19;;;7.13;85.61
42247;BME280;27913;42.722;23.268;2023-04-10T01:13:31;95018.53;;;6.91;86.47
42247;BME280;27913;42.722;23.268;2023-04-10T01:16:10;94855.50;;;5.83;87.38
42247;BME280;27913;42.722;23.268;2023-04-10T01:18:47;95071.50;;;7.26;89.38
42247;BME280;27913;42.722;23.268;2023-04-10T01:21:15;94944.88;;;6.54;89.66
42247;BME280;27913;42.722;23.268;2023-04-10T01:26:14;95017.56;;;6.92;90.11
42247;BME280;27913;42.722;23.268;2023-04-10T01:28:53;95003.50;;;6.84;90.23
42247;BME280;27913;42.722;23.268;2023-04-10T01:31:38;95007.13;;;6.92;90.19
42247;BME280;27913;42.722;23.268;2023-04-10T01:34:14;95076.09;;;7.32;90.51
42247;BME280;27913;42.722;23.268;2023-04-10T01:37:03;94929.69;;;6.32;90.80
42247;BME280;27913;42.722;23.268;2023-04-10T01:39:29;95083.78;;;7.25;90.64
42247;BME280;27913;42.722;23.268;2023-04-10T01:41:57;95008.25;;;6.89;90.10
42247;BME280;27913;42.722;23.268;2023-04-10T01:44:26;95011.03;;;6.87;90.32
42247;BME280;27913;42.722;23.268;2023-04-10T01:46:55;95078.53;;;7.25;90.36
42247;BME280;27913;42.722;23.268;2023-04-10T01:49:23;94920.38;;;6.30;90.16
42247;BME280;27913;42.722;23.268;2023-04-10T01:51:50;95065.78;;;7.14;90.78
42247;BME280;27913;42.722;23.268;2023-04-10T01:54:16;95082.78;;;7.27;91.25
42247;BME280;27913;42.722;23.268;2023-04-10T01:56:42;95064.47;;;7.10;91.89
42247;BME280;27913;42.722;23.268;2023-04-10T01:59:08;95010.84;;;6.89;91.66
42247;BME280;27913;42.722;23.268;2023-04-10T02:01:34;95089.81;;;7.26;92.20
42247;BME280;27913;42.722;23.268;2023-04-10T02:04:00;95074.28;;;7.16;92.94
42247;BME280;27913;42.722;23.268;2023-04-10T02:06:50;94963.50;;;6.59;92.95
42247;BME280;27913;42.722;23.268;2023-04-10T02:12:23;95071.00;;;7.14;93.67
42247;BME280;27913;42.722;23.268;2023-04-10T02:14:52;94999.09;;;6.68;94.62
42247;BME280;27913;42.722;23.268;2023-04-10T02:17:27;94865.94;;;5.83;94.82
42247;BME280;27913;42.722;23.268;2023-04-10T02:19:54;94904.16;;;6.01;94.08
42247;BME280;27913;42.722;23.268;2023-04-10T02:22:22;95067.41;;;7.07;94.07
42247;BME280;27913;42.722;23.268;2023-04-10T02:24:50;95062.19;;;7.07;93.69
42247;BME280;27913;42.722;23.268;2023-04-10T02:27:29;95061.38;;;7.06;93.82
42247;BME280;27913;42.722;23.268;2023-04-10T02:29:55;95055.31;;;7.06;93.72
42247;BME280;27913;42.722;23.268;2023-04-10T02:32:21;95065.78;;;7.06;93.03
42247;BME280;27913;42.722;23.268;2023-04-10T02:34:47;94987.97;;;6.58;93.06
42247;BME280;27913;42.722;23.268;2023-04-10T02:37:12;94983.41;;;6.60;93.11
42247;BME280;27913;42.722;23.268;2023-04-10T02:39:38;95055.16;;;6.99;93.09
42247;BME280;27913;42.722;23.268;2023-04-10T02:42:03;95027.03;;;6.93;93.10
42247;BME280;27913;42.722;23.268;2023-04-10T02:44:29;95051.22;;;6.95;92.68
42247;BME280;27913;42.722;23.268;2023-04-10T02:46:55;95010.38;;;6.69;92.38
42247;BME280;27913;42.722;23.268;2023-04-10T02:49:20;94928.03;;;6.23;92.80
42247;BME280;27913;42.722;23.268;2023-04-10T02:51:46;94999.25;;;6.58;93.93
42247;BME280;27913;42.722;23.268;2023-04-10T02:54:11;95027.06;;;6.68;94.64
42247;BME280;27913;42.722;23.268;2023-04-10T02:56:36;94961.81;;;6.16;95.36
42247;BME280;27913;42.722;23.268;2023-04-10T02:59:02;94965.22;;;6.08;96.53
42247;BME280;27913;42.722;23.268;2023-04-10T03:01:28;95029.94;;;6.48;96.79
42247;BME280;27913;42.722;23.268;2023-04-10T03:03:54;95030.75;;;6.40;96.88
42247;BME280;27913;42.722;23.268;2023-04-10T03:06:19;95015.53;;;6.27;96.92
42247;BME280;27913;42.722;23.268;2023-04-10T03:08:46;95018.63;;;6.22;96.85
42247;BME280;27913;42.722;23.268;2023-04-10T03:11:11;95039.22;;;6.25;97.46
42247;BME280;27913;42.722;23.268;2023-04-10T03:13:38;95024.16;;;6.19;97.79
42247;BME280;27913;42.722;23.268;2023-04-10T03:16:03;95030.22;;;6.20;97.72
42247;BME280;27913;42.722;23.268;2023-04-10T03:18:29;95035.09;;;6.14;97.79
42247;BME280;27913;42.722;23.268;2023-04-10T03:20:56;95034.44;;;6.12;98.20
42247;BME280;27913;42.722;23.268;2023-04-10T03:23:21;95040.94;;;6.08;98.65
42247;BME280;27913;42.722;23.268;2023-04-10T03:25:50;95020.97;;;5.99;98.42
42247;BME280;27913;42.722;23.268;2023-04-10T03:28:21;95015.22;;;5.87;99.06
42247;BME280;27913;42.722;23.268;2023-04-10T03:30:48;94990.72;;;5.79;99.20
42247;BME280;27913;42.722;23.268;2023-04-10T03:33:15;94984.25;;;5.57;99.59
42247;BME280;27913;42.722;23.268;2023-04-10T03:35:41;94928.03;;;5.28;100.00
42247;BME280;27913;42.722;23.268;2023-04-10T03:38:07;95031.19;;;5.84;100.00
42247;BME280;27913;42.722;23.268;2023-04-10T03:40:32;95045.22;;;5.83;100.00
42247;BME280;27913;42.722;23.268;2023-04-10T03:43:00;95051.03;;;5.76;100.00
42247;BME280;27913;42.722;23.268;2023-04-10T03:45:26;95047.28;;;5.71;100.00
42247;BME280;27913;42.722;23.268;2023-04-10T03:47:51;94810.00;;;4.21;100.00
42247;BME280;27913;42.722;23.268;2023-04-10T03:50:17;95050.34;;;5.66;100.00
42247;BME280;27913;42.722;23.268;2023-04-10T03:52:43;94930.47;;;4.94;100.00
42247;BME280;27913;42.722;23.268;2023-04-10T03:55:08;95014.81;;;5.38;100.00
42247;BME280;27913;42.722;23.268;2023-04-10T03:57:34;95026.81;;;5.31;100.00
42247;BME280;27913;42.722;23.268;2023-04-10T03:59:59;95054.13;;;5.45;100.00
42247;BME280;27913;42.722;23.268;2023-04-10T04:02:25;94993.59;;;5.06;100.00
42247;BME280;27913;42.722;23.268;2023-04-10T04:04:51;94855.16;;;4.30;100.00
42247;BME280;27913;42.722;23.268;2023-04-10T04:07:17;95061.53;;;5.50;100.00
42247;BME280;27913;42.722;23.268;2023-04-10T04:09:42;94999.31;;;5.10;100.00
42247;BME280;27913;42.722;23.268;2023-04-10T04:12:08;95043.78;;;5.53;100.00
42247;BME280;27913;42.722;23.268;2023-04-10T04:14:33;94854.53;;;4.36;100.00
42247;BME280;27913;42.722;23.268;2023-04-10T04:16:59;95043.69;;;5.45;100.00
42247;BME280;27913;42.722;23.268;2023-04-10T04:19:24;95057.81;;;5.61;100.00
42247;BME280;27913;42.722;23.268;2023-04-10T04:21:50;95053.41;;;5.61;100.00
42247;BME280;27913;42.722;23.268;2023-04-10T04:24:15;95007.69;;;5.22;100.00
42247;BME280;27913;42.722;23.268;2023-04-10T04:26:41;95065.91;;;5.49;100.00
42247;BME280;27913;42.722;23.268;2023-04-10T04:29:06;95077.97;;;5.50;100.00
42247;BME280;27913;42.722;23.268;2023-04-10T04:31:32;95004.53;;;5.10;100.00
42247;BME280;27913;42.722;23.268;2023-04-10T04:33:58;95001.25;;;5.08;100.00
42247;BME280;27913;42.722;23.268;2023-04-10T04:36:24;95039.50;;;5.26;100.00
42247;BME280;27913;42.722;23.268;2023-04-10T04:38:50;95075.53;;;5.49;100.00
42247;BME280;27913;42.722;23.268;2023-04-10T04:41:15;95027.25;;;5.18;100.00
42247;BME280;27913;42.722;23.268;2023-04-10T04:43:41;95004.88;;;5.15;100.00
42247;BME280;27913;42.722;23.268;2023-04-10T04:46:07;94861.72;;;4.16;100.00
42247;BME280;27913;42.722;23.268;2023-04-10T04:48:33;95002.91;;;5.09;100.00
42247;BME280;27913;42.722;23.268;2023-04-10T04:50:59;95081.28;;;5.61;100.00
42247;BME280;27913;42.722;23.268;2023-04-10T04:55:35;94997.66;;;5.01;100.00
42247;BME280;27913;42.722;23.268;2023-04-10T04:58:00;94926.56;;;4.45;100.00
42247;BME280;27913;42.722;23.268;2023-04-10T05:00:26;95088.13;;;5.53;100.00
42247;BME280;27913;42.722;23.268;2023-04-10T05:02:51;94981.41;;;4.89;100.00
42247;BME280;27913;42.722;23.268;2023-04-10T05:05:17;95005.06;;;4.95;100.00
42247;BME280;27913;42.722;23.268;2023-04-10T05:07:42;94981.31;;;4.72;100.00
42247;BME280;27913;42.722;23.268;2023-04-10T05:10:08;95039.78;;;5.14;100.00
42247;BME280;27913;42.722;23.268;2023-04-10T05:12:33;95100.28;;;5.44;100.00
42247;BME280;27913;42.722;23.268;2023-04-10T05:14:59;95078.19;;;5.30;100.00
42247;BME280;27913;42.722;23.268;2023-04-10T05:17:43;94907.38;;;4.28;100.00
42247;BME280;27913;42.722;23.268;2023-04-10T05:20:09;94985.31;;;4.85;100.00
42247;BME280;27913;42.722;23.268;2023-04-10T05:34:59;94848.56;;;3.99;100.00
42247;BME280;27913;42.722;23.268;2023-04-10T05:37:24;94855.38;;;4.18;100.00
42247;BME280;27913;42.722;23.268;2023-04-10T05:39:49;94954.63;;;4.78;100.00
42247;BME280;27913;42.722;23.268;2023-04-10T05:42:15;94965.78;;;4.89;100.00
42247;BME280;27913;42.722;23.268;2023-04-10T05:44:41;94901.00;;;4.67;100.00
42247;BME280;27913;42.722;23.268;2023-04-10T05:47:06;95107.91;;;5.91;100.00
42247;BME280;27913;42.722;23.268;2023-04-10T05:49:32;95105.03;;;6.02;100.00
42247;BME280;27913;42.722;23.268;2023-04-10T05:51:57;94998.06;;;5.41;100.00
42247;BME280;27913;42.722;23.268;2023-04-10T05:54:23;95037.72;;;5.79;98.63
42247;BME280;27913;42.722;23.268;2023-04-10T05:56:48;95036.25;;;5.85;98.18
42247;BME280;27913;42.722;23.268;2023-04-10T05:59:14;95052.25;;;5.90;96.94
42247;BME280;27913;42.722;23.268;2023-04-10T06:01:40;95060.34;;;6.06;97.10
42247;BME280;27913;42.722;23.268;2023-04-10T06:04:05;95105.84;;;6.38;96.99
42247;BME280;27913;42.722;23.268;2023-04-10T06:06:32;95105.38;;;6.43;96.82
42247;BME280;27913;42.722;23.268;2023-04-10T06:08:58;94850.50;;;4.95;96.57
42247;BME280;27913;42.722;23.268;2023-04-10T06:11:23;95103.94;;;6.57;96.06
42247;BME280;27913;42.722;23.268;2023-04-10T06:13:49;95091.84;;;6.47;95.84
42247;BME280;27913;42.722;23.268;2023-04-10T06:16:14;95096.44;;;6.62;96.31
42247;BME280;27913;42.722;23.268;2023-04-10T06:18:40;95093.34;;;6.75;95.25
42247;BME280;27913;42.722;23.268;2023-04-10T06:21:06;95095.34;;;6.89;93.99
42247;BME280;27913;42.722;23.268;2023-04-10T06:23:32;95093.88;;;7.04;93.57
42247;BME280;27913;42.722;23.268;2023-04-10T06:25:57;95065.13;;;7.04;92.70
42247;BME280;27913;42.722;23.268;2023-04-10T06:28:23;95081.78;;;7.19;91.62
42247;BME280;27913;42.722;23.268;2023-04-10T06:30:49;95087.53;;;7.23;90.36
42247;BME280;27913;42.722;23.268;2023-04-10T06:33:14;95028.53;;;6.87;90.87
42247;BME280;27913;42.722;23.268;2023-04-10T06:35:40;95086.38;;;7.42;90.35
42247;BME280;27913;42.722;23.268;2023-04-10T06:38:06;95018.38;;;7.09;88.96
42247;BME280;27913;42.722;23.268;2023-04-10T06:40:32;95079.66;;;7.56;89.57
42247;BME280;27913;42.722;23.268;2023-04-10T06:42:59;95030.47;;;7.27;87.79
42247;BME280;27913;42.722;23.268;2023-04-10T06:45:26;95104.84;;;7.66;84.86
42247;BME280;27913;42.722;23.268;2023-04-10T06:47:52;95099.09;;;7.70;85.28
42247;BME280;27913;42.722;23.268;2023-04-10T06:50:17;95037.78;;;7.48;85.26
42247;BME280;27913;42.722;23.268;2023-04-10T06:52:44;94825.19;;;6.24;84.56
42247;BME280;27913;42.722;23.268;2023-04-10T06:55:09;95007.06;;;7.33;83.08
42247;BME280;27913;42.722;23.268;2023-04-10T06:57:37;95008.53;;;7.36;83.54
42247;BME280;27913;42.722;23.268;2023-04-10T07:00:03;95101.81;;;8.02;83.95
42247;BME280;27913;42.722;23.268;2023-04-10T07:02:29;95051.16;;;7.70;83.05
42247;BME280;27913;42.722;23.268;2023-04-10T07:04:55;95098.88;;;7.97;83.31
42247;BME280;27913;42.722;23.268;2023-04-10T07:07:21;94885.41;;;6.81;83.54
42247;BME280;27913;42.722;23.268;2023-04-10T07:09:46;95077.13;;;7.88;84.33
42247;BME280;27913;42.722;23.268;2023-04-10T07:12:12;95098.00;;;8.13;83.33
42247;BME280;27913;42.722;23.268;2023-04-10T07:14:37;94910.66;;;7.05;82.95
42247;BME280;27913;42.722;23.268;2023-04-10T07:17:03;95037.19;;;7.86;82.79
42247;BME280;27913;42.722;23.268;2023-04-10T07:19:28;94944.25;;;7.42;82.61
42247;BME280;27913;42.722;23.268;2023-04-10T07:21:54;95013.16;;;7.82;82.47
42247;BME280;27913;42.722;23.268;2023-04-10T07:24:19;95100.66;;;8.45;82.58
42247;BME280;27913;42.722;23.268;2023-04-10T07:26:45;94982.59;;;7.66;82.47
42247;BME280;27913;42.722;23.268;2023-04-10T07:29:11;95030.94;;;7.95;81.83
42247;BME280;27913;42.722;23.268;2023-04-10T07:31:38;94975.53;;;7.75;81.92
42247;BME280;27913;42.722;23.268;2023-04-10T07:34:03;94941.88;;;7.64;81.80
42247;BME280;27913;42.722;23.268;2023-04-10T07:36:29;95050.13;;;8.28;81.49
42247;BME280;27913;42.722;23.268;2023-04-10T07:38:55;95053.50;;;8.37;81.30
42247;BME280;27913;42.722;23.268;2023-04-10T07:41:21;95104.34;;;8.67;80.49
42247;BME280;27913;42.722;23.268;2023-04-10T07:43:46;95042.16;;;8.13;80.91
42247;BME280;27913;42.722;23.268;2023-04-10T07:46:12;95109.97;;;8.56;81.02
42247;BME280;27913;42.722;23.268;2023-04-10T07:48:38;95077.69;;;8.47;80.09
42247;BME280;27913;42.722;23.268;2023-04-10T07:51:03;94989.69;;;7.97;80.42
42247;BME280;27913;42.722;23.268;2023-04-10T07:53:29;95015.88;;;8.29;79.93
42247;BME280;27913;42.722;23.268;2023-04-10T07:55:55;95103.69;;;8.97;78.29
42247;BME280;27913;42.722;23.268;2023-04-10T07:58:21;95041.47;;;8.59;78.24
42247;BME280;27913;42.722;23.268;2023-04-10T08:00:46;95116.91;;;9.04;77.25
42247;BME280;27913;42.722;23.268;2023-04-10T08:03:13;95005.78;;;8.50;77.18
42247;BME280;27913;42.722;23.268;2023-04-10T08:05:40;94933.94;;;8.12;76.36
42247;BME280;27913;42.722;23.268;2023-04-10T08:08:06;95099.81;;;9.32;76.75
42247;BME280;27913;42.722;23.268;2023-04-10T08:10:31;95104.19;;;9.39;75.71
42247;BME280;27913;42.722;23.268;2023-04-10T08:12:56;95094.38;;;9.33;74.44
42247;BME280;27913;42.722;23.268;2023-04-10T08:15:22;95103.47;;;9.46;73.62
42247;BME280;27913;42.722;23.268;2023-04-10T08:17:47;95097.53;;;9.52;71.48
42247;BME280;27913;42.722;23.268;2023-04-10T08:20:14;94989.88;;;8.98;69.78
42247;BME280;27913;42.722;23.268;2023-04-10T08:22:40;95104.53;;;9.75;69.67
42247;BME280;27913;42.722;23.268;2023-04-10T08:25:05;94975.22;;;8.89;67.74
42247;BME280;27913;42.722;23.268;2023-04-10T08:27:31;95102.09;;;9.73;68.60
42247;BME280;27913;42.722;23.268;2023-04-10T08:29:56;95093.38;;;9.73;68.50
42247;BME280;27913;42.722;23.268;2023-04-10T08:32:22;95095.66;;;9.76;68.40
42247;BME280;27913;42.722;23.268;2023-04-10T08:34:50;95108.00;;;9.90;68.22
42247;BME280;27913;42.722;23.268;2023-04-10T08:37:16;95095.50;;;9.93;68.63
42247;BME280;27913;42.722;23.268;2023-04-10T08:39:41;95095.59;;;9.99;67.72
42247;BME280;27913;42.722;23.268;2023-04-10T08:42:06;95102.56;;;10.07;67.38
42247;BME280;27913;42.722;23.268;2023-04-10T08:44:32;95093.59;;;10.01;67.68
42247;BME280;27913;42.722;23.268;2023-04-10T08:47:01;95083.97;;;10.09;67.44
42247;BME280;27913;42.722;23.268;2023-04-10T08:52:06;95091.50;;;9.97;64.56
42247;BME280;27913;42.722;23.268;2023-04-10T08:54:34;95081.91;;;9.89;64.37
42247;BME280;27913;42.722;23.268;2023-04-10T08:57:02;95025.34;;;9.63;63.33
42247;BME280;27913;42.722;23.268;2023-04-10T08:59:29;95098.38;;;9.83;63.39
42247;BME280;27913;42.722;23.268;2023-04-10T09:01:55;94865.03;;;8.35;63.54
42247;BME280;27913;42.722;23.268;2023-04-10T09:04:23;95087.78;;;9.91;64.03
42247;BME280;27913;42.722;23.268;2023-04-10T09:06:49;94809.88;;;8.28;63.29
42247;BME280;27913;42.722;23.268;2023-04-10T09:09:14;95085.00;;;9.93;62.55
42247;BME280;27913;42.722;23.268;2023-04-10T09:14:22;94980.56;;;9.34;62.20
42247;BME280;27913;42.722;23.268;2023-04-10T09:16:49;95009.06;;;9.37;62.67
42247;BME280;27913;42.722;23.268;2023-04-10T09:19:31;95013.94;;;9.40;61.68
42247;BME280;27913;42.722;23.268;2023-04-10T09:21:59;95083.53;;;9.75;62.62
42247;BME280;27913;42.722;23.268;2023-04-10T14:07:23;94774.16;;;10.36;66.39
42247;BME280;27913;42.722;23.268;2023-04-10T14:09:48;94746.19;;;9.77;67.58
42247;BME280;27913;42.722;23.268;2023-04-10T14:12:14;94907.84;;;10.61;68.83
42247;BME280;27913;42.722;23.268;2023-04-10T14:14:43;94912.78;;;10.49;69.26
42247;BME280;27913;42.722;23.268;2023-04-10T14:17:09;94903.78;;;10.58;69.93
42247;BME280;27913;42.722;23.268;2023-04-10T14:19:41;94772.25;;;10.30;73.91
42247;BME280;27913;42.722;23.268;2023-04-10T14:22:07;94765.50;;;10.13;68.17
42247;BME280;27913;42.722;23.268;2023-04-10T14:24:33;94701.00;;;9.60;66.93
42247;BME280;27913;42.722;23.268;2023-04-10T14:26:59;94744.31;;;9.71;68.23
42247;BME280;27913;42.722;23.268;2023-04-10T14:32:17;94709.66;;;9.39;67.92
42247;BME280;27913;42.722;23.268;2023-04-10T14:34:42;94688.72;;;9.24;69.20
42247;BME280;27913;42.722;23.268;2023-04-10T14:37:08;94842.81;;;10.04;69.84
42247;BME280;27913;42.722;23.268;2023-04-10T14:39:34;94897.75;;;10.43;72.30
42247;BME280;27913;42.722;23.268;2023-04-10T14:41:59;94910.38;;;10.32;70.68
42247;BME280;27913;42.722;23.268;2023-04-10T14:44:26;94899.19;;;10.23;71.19
42247;BME280;27913;42.722;23.268;2023-04-10T14:46:51;94898.03;;;10.11;71.94
42247;BME280;27913;42.722;23.268;2023-04-10T14:49:17;94783.66;;;9.12;73.38
42247;BME280;27913;42.722;23.268;2023-04-10T14:51:43;94917.66;;;9.93;72.03
42247;BME280;27913;42.722;23.268;2023-04-10T14:54:09;94876.63;;;9.55;72.12
42247;BME280;27913;42.722;23.268;2023-04-10T14:56:35;94847.50;;;9.50;72.10
42247;BME280;27913;42.722;23.268;2023-04-10T14:59:01;94909.06;;;9.84;71.92
42247;BME280;27913;42.722;23.268;2023-04-10T15:01:26;94893.28;;;9.62;72.08
42247;BME280;27913;42.722;23.268;2023-04-10T15:03:52;94905.13;;;9.73;72.42
42247;BME280;27913;42.722;23.268;2023-04-10T15:06:17;94905.41;;;9.78;72.64
42247;BME280;27913;42.722;23.268;2023-04-10T15:08:43;94752.84;;;8.84;73.07
42247;BME280;27913;42.722;23.268;2023-04-10T15:11:09;94831.47;;;9.29;73.31
42247;BME280;27913;42.722;23.268;2023-04-10T15:13:34;94893.06;;;9.79;72.73
42247;BME280;27913;42.722;23.268;2023-04-10T15:16:30;94862.84;;;9.68;72.46
42247;BME280;27913;42.722;23.268;2023-04-10T15:18:55;94899.66;;;9.90;72.13
42247;BME280;27913;42.722;23.268;2023-04-10T15:21:21;94827.91;;;9.52;71.81
42247;BME280;27913;42.722;23.268;2023-04-10T15:23:47;94898.81;;;10.05;71.77
42247;BME280;27913;42.722;23.268;2023-04-10T15:26:13;94842.44;;;9.85;71.70
42247;BME280;27913;42.722;23.268;2023-04-10T15:28:40;94834.66;;;9.77;71.81
42247;BME280;27913;42.722;23.268;2023-04-10T15:31:08;94767.03;;;9.42;72.94
42247;BME280;27913;42.722;23.268;2023-04-10T15:33:33;94884.44;;;10.22;74.02
42247;BME280;27913;42.722;23.268;2023-04-10T15:36:00;94881.84;;;10.29;72.02
42247;BME280;27913;42.722;23.268;2023-04-10T15:38:26;94893.94;;;10.23;70.72
42247;BME280;27913;42.722;23.268;2023-04-10T15:40:53;94785.47;;;9.49;70.08
42247;BME280;27913;42.722;23.268;2023-04-10T15:43:19;94877.97;;;10.03;71.33
42247;BME280;27913;42.722;23.268;2023-04-10T15:45:44;94888.31;;;9.89;71.09
42247;BME280;27913;42.722;23.268;2023-04-10T15:48:11;94882.16;;;9.82;70.46
42247;BME280;27913;42.722;23.268;2023-04-10T15:50:36;94845.25;;;9.47;69.68
42247;BME280;27913;42.722;23.268;2023-04-10T15:53:02;94820.09;;;9.37;70.64
42247;BME280;27913;42.722;23.268;2023-04-10T15:55:27;94869.22;;;9.81;70.44
42247;BME280;27913;42.722;23.268;2023-04-10T15:57:53;94882.63;;;9.86;70.58
42247;BME280;27913;42.722;23.268;2023-04-10T16:00:19;94821.69;;;9.53;70.44
42247;BME280;27913;42.722;23.268;2023-04-10T16:02:45;94676.72;;;8.77;69.84
42247;BME280;27913;42.722;23.268;2023-04-10T16:05:10;94811.50;;;9.65;70.08
42247;BME280;27913;42.722;23.268;2023-04-10T16:07:36;94868.16;;;10.12;69.78
42247;BME280;27913;42.722;23.268;2023-04-10T16:10:04;94807.84;;;9.82;68.24
42247;BME280;27913;42.722;23.268;2023-04-10T16:12:30;94867.41;;;10.18;67.76
42247;BME280;27913;42.722;23.268;2023-04-10T16:14:55;94874.66;;;10.16;68.57
42247;BME280;27913;42.722;23.268;2023-04-10T16:17:21;94627.13;;;8.61;68.10
42247;BME280;27913;42.722;23.268;2023-04-10T16:19:47;94811.31;;;9.67;68.13
42247;BME280;27913;42.722;23.268;2023-04-10T16:22:13;94881.13;;;9.98;68.35
42247;BME280;27913;42.722;23.268;2023-04-10T16:24:38;94841.91;;;9.75;67.57
42247;BME280;27913;42.722;23.268;2023-04-10T16:27:04;94780.28;;;9.34;68.20
42247;BME280;27913;42.722;23.268;2023-04-10T16:29:32;94760.56;;;9.23;67.12
42247;BME280;27913;42.722;23.268;2023-04-10T16:31:58;94765.91;;;9.14;67.20
42247;BME280;27913;42.722;23.268;2023-04-10T16:34:23;94847.50;;;9.72;67.95
42247;BME280;27913;42.722;23.268;2023-04-10T16:36:49;94883.50;;;9.93;67.81
42247;BME280;27913;42.722;23.268;2023-04-10T16:39:14;94888.97;;;9.91;67.37
42247;BME280;27913;42.722;23.268;2023-04-10T16:41:40;94877.28;;;9.94;67.13
42247;BME280;27913;42.722;23.268;2023-04-10T16:44:05;94888.56;;;9.95;67.10
42247;BME280;27913;42.722;23.268;2023-04-10T16:46:31;94893.81;;;9.95;68.39
42247;BME280;27913;42.722;23.268;2023-04-10T16:48:57;94900.09;;;9.94;67.81
42247;BME280;27913;42.722;23.268;2023-04-10T16:51:22;94642.47;;;8.33;66.93
42247;BME280;27913;42.722;23.268;2023-04-10T16:53:48;94885.84;;;9.66;69.46
42247;BME280;27913;42.722;23.268;2023-04-10T16:56:14;94726.06;;;8.43;72.14
42247;BME280;27913;42.722;23.268;2023-04-10T16:58:39;94904.06;;;9.37;73.75
42247;BME280;27913;42.722;23.268;2023-04-10T17:01:20;94783.81;;;8.50;75.22
42247;BME280;27913;42.722;23.268;2023-04-10T17:03:49;94849.69;;;8.70;77.14
42247;BME280;27913;42.722;23.268;2023-04-10T17:06:16;94774.13;;;8.20;78.69
42247;BME280;27913;42.722;23.268;2023-04-10T17:08:41;94897.16;;;8.91;79.56
42247;BME280;27913;42.722;23.268;2023-04-10T17:11:07;94817.94;;;8.42;80.53
42247;BME280;27913;42.722;23.268;2023-04-10T17:13:33;94801.22;;;8.28;81.31
42247;BME280;27913;42.722;23.268;2023-04-10T17:16:02;94743.00;;;7.79;82.46
42247;BME280;27913;42.722;23.268;2023-04-10T17:18:27;94878.50;;;8.55;83.62
42247;BME280;27913;42.722;23.268;2023-04-10T17:20:54;94917.94;;;8.77;84.30
42247;BME280;27913;42.722;23.268;2023-04-10T17:23:19;94922.81;;;8.80;84.02
42247;BME280;27913;42.722;23.268;2023-04-10T17:25:45;94921.09;;;8.73;83.98
42247;BME280;27913;42.722;23.268;2023-04-10T17:28:10;94938.56;;;8.80;83.94
42247;BME280;27913;42.722;23.268;2023-04-10T17:30:35;94890.34;;;8.43;84.04
42247;BME280;27913;42.722;23.268;2023-04-10T17:33:01;94949.78;;;8.74;84.11
42247;BME280;27913;42.722;23.268;2023-04-10T17:35:27;94887.75;;;8.43;85.23
42247;BME280;27913;42.722;23.268;2023-04-10T17:37:52;94849.94;;;8.14;86.40
42247;BME280;27913;42.722;23.268;2023-04-10T17:40:18;94866.38;;;8.31;87.28
42247;BME280;27913;42.722;23.268;2023-04-10T17:42:44;94929.34;;;8.69;89.13
42247;BME280;27913;42.722;23.268;2023-04-10T17:45:09;94941.78;;;8.67;90.41
42247;BME280;27913;42.722;23.268;2023-04-10T17:47:35;94878.38;;;8.25;91.40
42247;BME280;27913;42.722;23.268;2023-04-10T17:50:01;94903.81;;;8.40;92.43
42247;BME280;27913;42.722;23.268;2023-04-10T17:52:27;94855.78;;;8.01;92.92
42247;BME280;27913;42.722;23.268;2023-04-10T17:54:52;94863.41;;;7.87;93.19
42247;BME280;27913;42.722;23.268;2023-04-10T17:57:18;94887.88;;;8.03;93.41
42247;BME280;27913;42.722;23.268;2023-04-10T17:59:43;94650.69;;;6.36;94.04
42247;BME280;27913;42.722;23.268;2023-04-10T18:02:09;94950.13;;;8.16;93.52
42247;BME280;27913;42.722;23.268;2023-04-10T18:04:34;94944.06;;;8.15;94.65
42247;BME280;27913;42.722;23.268;2023-04-10T18:07:00;94948.69;;;8.13;93.80
42247;BME280;27913;42.722;23.268;2023-04-10T18:09:26;94712.97;;;6.64;92.97
42247;BME280;27913;42.722;23.268;2023-04-10T18:11:51;94896.88;;;7.68;92.92